Time;durP1;ratioP1;P1;durP2;ratioP2;P2;SDS_P1;SDS_P2;PMS_P1;PMS_P2;Temp;Humidity;BMP_temperature;BMP_pressure;BME280_temperature;BME280_humidity;BME280_pressure;Samples;Min_cycle;Max_cycle;Signal;HPM_P1;HPM_P2
2021/11/21 00:01:50;;;;;;;24.88;16.90;;;8.30;99.90;;;;;;5070264;28;20035;-65
2021/11/21 00:04:16;;;;;;;28.35;18.75;;;8.40;99.90;;;;;;5060055;28;20028;-64
2021/11/21 00:06:42;;;;;;;25.00;18.33;;;8.30;99.90;;;;;;5090958;28;20526;-63
2021/11/21 00:09:07;;;;;;;26.10;18.23;;;8.30;99.90;;;;;;5091027;28;20055;-63
2021/11/21 00:11:33;;;;;;;30.00;19.08;;;8.40;99.90;;;;;;5084619;28;20470;-64
2021/11/21 00:13:59;;;;;;;24.88;19.30;;;8.30;99.90;;;;;;5053417;28;20462;-64
2021/11/21 00:16:24;;;;;;;31.00;18.83;;;8.30;99.90;;;;;;5071350;28;20470;-68
2021/11/21 00:18:50;;;;;;;28.42;19.00;;;8.40;99.90;;;;;;5072688;28;20494;-64
2021/11/21 00:21:16;;;;;;;26.48;18.55;;;8.40;99.90;;;;;;5060185;28;20409;-64
2021/11/21 00:23:42;;;;;;;23.27;17.50;;;8.40;99.90;;;;;;5066230;28;20029;-64
2021/11/21 00:26:08;;;;;;;29.27;17.38;;;8.40;99.90;;;;;;5089442;28;20028;-65
2021/11/21 00:28:34;;;;;;;25.30;18.25;;;8.50;99.90;;;;;;5089637;28;20040;-63
2021/11/21 00:30:59;;;;;;;26.95;19.50;;;8.50;99.90;;;;;;5062627;28;20060;-63
2021/11/21 00:33:25;;;;;;;25.48;18.67;;;8.50;99.90;;;;;;5083826;28;20091;-65
2021/11/21 00:35:51;;;;;;;23.45;16.98;;;8.50;99.90;;;;;;5059602;28;20035;-63
2021/11/21 00:38:17;;;;;;;28.08;17.65;;;8.40;99.90;;;;;;5084583;28;20032;-65
2021/11/21 00:40:43;;;;;;;24.73;17.67;;;8.20;99.90;;;;;;5062311;28;20039;-62
2021/11/21 00:43:09;;;;;;;28.02;17.85;;;8.40;99.90;;;;;;5087730;28;20105;-64
2021/11/21 00:45:35;;;;;;;27.20;19.30;;;8.40;99.90;;;;;;5068164;28;20035;-64
2021/11/21 00:48:01;;;;;;;27.73;17.58;;;8.30;99.90;;;;;;5090712;28;20071;-64
2021/11/21 00:50:29;;;;;;;27.83;18.77;;;8.20;99.90;;;;;;5090859;28;20089;-64
2021/11/21 00:53:00;;;;;;;28.23;16.15;;;8.20;99.90;;;;;;5075318;28;20025;-64
2021/11/21 00:58:18;;;;;;;33.75;17.58;;;8.20;99.90;;;;;;5083974;28;20028;-63
2021/11/21 01:00:47;;;;;;;29.58;18.70;;;8.10;99.90;;;;;;5076520;28;20028;-63
2021/11/21 01:03:16;;;;;;;28.75;17.58;;;8.10;99.90;;;;;;5081730;28;20035;-65
2021/11/21 01:05:44;;;;;;;29.23;18.00;;;8.10;99.90;;;;;;5074208;28;20051;-65
2021/11/21 01:08:10;;;;;;;28.23;18.17;;;8.10;99.90;;;;;;5088065;28;20043;-64
2021/11/21 01:10:36;;;;;;;40.03;19.65;;;8.10;99.90;;;;;;5080840;28;20032;-64
2021/11/21 01:13:02;;;;;;;35.42;19.75;;;8.20;99.90;;;;;;5081133;28;20385;-63
2021/11/21 01:15:29;;;;;;;29.85;18.05;;;8.20;99.90;;;;;;5080441;28;20027;-63
2021/11/21 01:17:56;;;;;;;29.95;18.17;;;8.20;99.90;;;;;;5076001;28;20123;-63
2021/11/21 01:20:24;;;;;;;29.02;17.60;;;8.20;99.90;;;;;;5074697;28;20446;-63
2021/11/21 01:22:51;;;;;;;34.85;19.05;;;8.20;99.90;;;;;;5073823;28;20119;-64
2021/11/21 01:25:18;;;;;;;28.88;16.73;;;8.20;99.90;;;;;;5081255;28;20028;-62
2021/11/21 01:27:44;;;;;;;31.75;19.45;;;8.10;99.90;;;;;;5073466;28;20032;-63
2021/11/21 01:30:14;;;;;;;35.75;19.13;;;8.10;99.90;;;;;;5080334;28;20033;-63
2021/11/21 01:32:40;;;;;;;30.38;18.17;;;8.10;99.90;;;;;;5086914;28;20472;-63
2021/11/21 01:35:07;;;;;;;32.38;18.90;;;8.20;99.90;;;;;;5074888;28;20028;-62
2021/11/21 01:37:33;;;;;;;30.58;17.20;;;8.00;99.90;;;;;;5064396;28;20044;-63
2021/11/21 01:39:59;;;;;;;34.47;19.55;;;8.00;99.90;;;;;;5093204;28;20082;-63
2021/11/21 01:42:25;;;;;;;29.17;17.48;;;8.00;99.90;;;;;;5075914;28;20090;-63
2021/11/21 01:44:51;;;;;;;32.58;17.75;;;7.90;99.90;;;;;;5071617;28;20377;-63
2021/11/21 01:47:17;;;;;;;33.90;18.50;;;7.90;99.90;;;;;;5075529;28;20059;-63
2021/11/21 01:49:43;;;;;;;35.28;19.73;;;8.00;99.90;;;;;;5092773;28;20036;-63
2021/11/21 01:52:09;;;;;;;31.67;19.15;;;7.90;99.90;;;;;;5088215;28;20101;-63
2021/11/21 01:54:35;;;;;;;34.80;20.42;;;7.70;99.90;;;;;;5071064;28;20041;-63
2021/11/21 01:57:02;;;;;;;36.85;20.80;;;7.70;99.90;;;;;;5075450;28;20043;-63
2021/11/21 01:59:28;;;;;;;40.70;20.77;;;7.60;99.90;;;;;;5092920;28;20035;-63
2021/11/21 02:01:54;;;;;;;34.63;20.10;;;7.70;99.90;;;;;;5073317;28;20385;-62
2021/11/21 02:04:19;;;;;;;32.78;18.88;;;7.60;99.90;;;;;;5083045;28;20036;-62
2021/11/21 02:06:45;;;;;;;29.30;18.40;;;7.70;99.90;;;;;;5083488;28;20327;-63
2021/11/21 02:09:11;;;;;;;33.42;19.02;;;7.60;99.90;;;;;;5079730;28;20461;-63
2021/11/21 02:11:37;;;;;;;30.08;19.67;;;7.50;99.90;;;;;;5054677;28;20024;-63
2021/11/21 02:14:02;;;;;;;31.35;17.75;;;7.60;99.90;;;;;;5086300;28;20035;-62
2021/11/21 02:16:30;;;;;;;29.40;18.15;;;7.60;99.90;;;;;;5073433;28;20111;-62
2021/11/21 02:18:57;;;;;;;29.40;17.38;;;7.50;99.90;;;;;;5061756;28;20063;-62
2021/11/21 02:21:22;;;;;;;28.48;17.30;;;7.30;99.90;;;;;;5070930;28;20443;-62
2021/11/21 02:23:50;;;;;;;28.77;17.52;;;7.40;99.90;;;;;;5073869;28;20024;-62
2021/11/21 02:26:17;;;;;;;27.17;16.15;;;7.30;99.90;;;;;;5084019;28;20172;-61
2021/11/21 02:28:45;;;;;;;27.20;16.23;;;7.30;99.90;;;;;;5052631;28;20086;-63
2021/11/21 02:31:13;;;;;;;26.98;16.33;;;7.30;99.90;;;;;;5077268;28;20016;-62
2021/11/21 02:33:40;;;;;;;22.02;13.88;;;7.40;99.90;;;;;;5081813;28;20020;-63
2021/11/21 02:36:07;;;;;;;28.50;15.80;;;7.30;99.90;;;;;;5092378;28;20030;-62
2021/11/21 02:38:34;;;;;;;27.10;16.58;;;7.30;99.90;;;;;;5071011;28;20119;-63
2021/11/21 02:41:01;;;;;;;24.85;15.20;;;7.20;99.90;;;;;;5061718;28;20381;-62
2021/11/21 02:43:27;;;;;;;24.20;14.88;;;7.30;99.90;;;;;;5073093;28;20031;-63
2021/11/21 02:45:55;;;;;;;28.42;17.00;;;7.20;99.90;;;;;;5080824;28;20043;-62
2021/11/21 02:48:23;;;;;;;27.00;16.13;;;7.20;99.90;;;;;;5092157;28;20119;-62
2021/11/21 02:50:50;;;;;;;26.92;16.85;;;7.20;99.90;;;;;;5086388;28;20029;-62
2021/11/21 02:53:17;;;;;;;33.33;17.50;;;7.20;99.90;;;;;;5081367;28;20024;-63
2021/11/21 02:55:43;;;;;;;28.10;15.75;;;7.00;99.90;;;;;;5076605;28;20036;-62
2021/11/21 02:58:09;;;;;;;31.05;17.42;;;7.00;99.90;;;;;;5080586;28;20020;-63
2021/11/21 03:00:38;;;;;;;28.27;17.23;;;6.90;99.90;;;;;;5091466;28;20035;-62
2021/11/21 03:03:04;;;;;;;29.92;16.25;;;7.00;99.90;;;;;;5083840;28;20347;-63
2021/11/21 03:05:33;;;;;;;28.27;17.27;;;7.10;99.90;;;;;;5072769;28;20035;-63
2021/11/21 03:07:59;;;;;;;24.77;14.95;;;7.00;99.90;;;;;;5074335;28;20020;-63
2021/11/21 03:10:25;;;;;;;27.35;15.77;;;7.20;99.90;;;;;;5091941;28;20303;-62
2021/11/21 03:12:57;;;;;;;27.30;15.48;;;7.10;99.90;;;;;;5083268;28;20035;-62
2021/11/21 03:15:23;;;;;;;;;;;7.10;99.90;;;;;;5066920;28;20123;-62
2021/11/21 03:17:49;;;;;;;26.48;13.90;;;7.00;99.90;;;;;;5073005;28;19918;-61
2021/11/21 03:20:19;;;;;;;25.13;16.38;;;6.90;99.90;;;;;;5089585;28;20052;-63
2021/11/21 03:22:45;;;;;;;27.02;16.60;;;7.00;99.90;;;;;;5086750;28;20061;-62
2021/11/21 03:25:11;;;;;;;25.52;15.70;;;7.10;99.90;;;;;;5091479;28;20123;-62
2021/11/21 03:27:37;;;;;;;27.55;15.18;;;7.00;99.90;;;;;;5090667;28;20153;-62
2021/11/21 03:30:06;;;;;;;22.05;13.60;;;7.00;99.90;;;;;;5091152;28;20479;-63
2021/11/21 03:32:31;;;;;;;24.80;13.75;;;6.90;99.90;;;;;;5076788;28;20058;-62
2021/11/21 03:34:57;;;;;;;24.20;14.88;;;6.80;99.90;;;;;;5057924;28;20029;-63
2021/11/21 03:37:23;;;;;;;24.70;15.07;;;6.80;99.90;;;;;;5072218;28;20249;-62
2021/11/21 03:39:49;;;;;;;23.33;13.93;;;6.80;99.90;;;;;;5085240;28;20024;-63
2021/11/21 03:42:15;;;;;;;23.27;13.95;;;6.70;99.90;;;;;;5090914;28;20031;-63
2021/11/21 03:44:41;;;;;;;23.38;13.70;;;6.80;99.90;;;;;;5083244;28;20035;-63
2021/11/21 03:47:06;;;;;;;22.20;13.65;;;6.70;99.90;;;;;;5071370;28;20021;-62
2021/11/21 03:49:32;;;;;;;24.05;12.98;;;6.80;99.90;;;;;;5071233;28;20048;-62
2021/11/21 03:51:58;;;;;;;25.85;14.57;;;6.80;99.90;;;;;;5047681;28;20115;-63
2021/11/21 03:54:24;;;;;;;23.60;14.38;;;6.70;99.90;;;;;;5078078;28;20067;-62
2021/11/21 03:56:50;;;;;;;26.60;13.80;;;6.70;99.90;;;;;;5070879;28;20107;-62
2021/11/21 03:59:15;;;;;;;18.75;11.68;;;6.80;99.90;;;;;;5059665;28;20029;-62
2021/11/21 04:01:41;;;;;;;23.20;14.32;;;6.80;99.90;;;;;;5070715;28;20029;-63
2021/11/21 04:04:07;;;;;;;21.00;13.65;;;6.80;99.90;;;;;;5071834;28;20058;-62
2021/11/21 04:06:34;;;;;;;24.85;13.45;;;6.90;99.90;;;;;;5076510;28;20114;-62
2021/11/21 04:08:59;;;;;;;24.65;14.18;;;6.80;99.90;;;;;;5084965;28;20039;-62
2021/11/21 04:11:25;;;;;;;24.77;14.15;;;6.90;99.90;;;;;;5082554;28;20020;-62
2021/11/21 04:13:51;;;;;;;23.85;14.05;;;6.90;99.90;;;;;;5089981;28;20021;-62
2021/11/21 04:16:16;;;;;;;23.95;13.85;;;6.90;99.90;;;;;;5090799;28;20033;-62
2021/11/21 04:18:45;;;;;;;26.10;14.50;;;6.90;99.90;;;;;;5079477;28;20063;-62
2021/11/21 04:21:10;;;;;;;21.92;14.13;;;6.90;99.90;;;;;;5073840;28;20104;-62
2021/11/21 04:23:36;;;;;;;24.42;14.57;;;6.90;99.90;;;;;;5065568;28;20116;-64
2021/11/21 04:26:02;;;;;;;21.95;13.95;;;6.80;99.90;;;;;;5069477;28;20536;-62
2021/11/21 04:28:28;;;;;;;24.02;14.65;;;6.90;99.90;;;;;;5073609;28;20032;-62
2021/11/21 04:30:55;;;;;;;27.42;16.38;;;7.00;99.90;;;;;;5087156;28;20024;-62
2021/11/21 04:33:22;;;;;;;31.83;15.82;;;7.00;99.90;;;;;;5090706;28;20146;-62
2021/11/21 04:35:48;;;;;;;23.70;14.75;;;7.00;99.90;;;;;;5068732;28;20078;-62
2021/11/21 04:38:14;;;;;;;27.13;15.02;;;6.90;99.90;;;;;;5080738;28;20115;-62
2021/11/21 04:40:40;;;;;;;25.52;14.50;;;6.80;99.90;;;;;;5071793;28;20020;-65
2021/11/21 04:43:05;;;;;;;27.63;15.63;;;6.90;99.90;;;;;;5087391;28;20033;-62
2021/11/21 04:45:31;;;;;;;26.38;13.48;;;6.90;99.90;;;;;;5079781;28;20157;-62
2021/11/21 04:47:57;;;;;;;25.88;13.45;;;6.90;99.90;;;;;;5081422;28;20024;-62
2021/11/21 04:50:22;;;;;;;25.48;14.80;;;6.90;99.90;;;;;;5070844;28;20420;-62
2021/11/21 04:52:48;;;;;;;21.90;12.85;;;6.90;99.90;;;;;;5070079;28;20021;-62
2021/11/21 04:55:14;;;;;;;23.80;13.98;;;6.80;99.90;;;;;;5071158;28;20032;-62
2021/11/21 04:57:41;;;;;;;25.65;12.90;;;6.70;99.90;;;;;;5078618;28;20030;-69
2021/11/21 05:00:16;;;;;;;26.13;13.40;;;6.80;99.90;;;;;;5088854;28;20028;-62
2021/11/21 05:02:47;;;;;;;22.08;12.63;;;6.80;99.90;;;;;;5070359;28;20025;-62
2021/11/21 05:05:14;;;;;;;26.75;14.02;;;6.80;99.90;;;;;;5061886;28;20377;-62
2021/11/21 05:07:41;;;;;;;25.30;14.02;;;6.70;99.90;;;;;;5090198;28;20082;-62
2021/11/21 05:10:08;;;;;;;26.23;13.07;;;6.60;99.90;;;;;;5069170;28;20067;-63
2021/11/21 05:12:35;;;;;;;24.77;13.48;;;6.70;99.90;;;;;;5070669;28;20078;-63
2021/11/21 05:15:01;;;;;;;24.15;14.13;;;6.70;99.90;;;;;;5069878;28;20704;-63
2021/11/21 05:17:28;;;;;;;25.98;13.35;;;6.60;99.90;;;;;;5071002;28;20051;-63
2021/11/21 05:19:53;;;;;;;22.48;12.63;;;6.70;99.90;;;;;;5077175;28;20060;-64
2021/11/21 05:22:19;;;;;;;26.50;13.82;;;6.70;99.90;;;;;;5085673;28;20024;-63
2021/11/21 05:24:45;;;;;;;24.15;13.70;;;6.70;99.90;;;;;;5074676;28;20444;-63
2021/11/21 05:27:11;;;;;;;32.53;13.68;;;6.80;99.90;;;;;;5083820;28;20047;-63
2021/11/21 05:29:37;;;;;;;31.38;14.35;;;6.80;99.90;;;;;;5071830;28;20037;-62
2021/11/21 05:32:03;;;;;;;20.77;11.82;;;6.80;99.90;;;;;;5088286;28;20111;-62
2021/11/21 05:34:29;;;;;;;22.42;12.60;;;6.90;99.90;;;;;;5084920;28;20024;-62
2021/11/21 05:36:54;;;;;;;23.05;12.65;;;6.90;99.90;;;;;;5086463;28;20515;-62
2021/11/21 05:39:20;;;;;;;21.17;12.10;;;6.90;99.90;;;;;;5094032;28;20028;-62
2021/11/21 05:41:46;;;;;;;24.45;15.18;;;6.80;99.90;;;;;;5088126;28;20111;-63
2021/11/21 05:44:11;;;;;;;22.88;12.52;;;6.80;99.90;;;;;;5093616;28;20033;-63
2021/11/21 05:46:37;;;;;;;23.77;13.68;;;6.80;99.90;;;;;;5093629;28;20109;-63
2021/11/21 05:49:03;;;;;;;21.33;12.27;;;6.80;99.90;;;;;;5080133;28;20147;-63
2021/11/21 05:51:29;;;;;;;22.83;12.82;;;6.80;99.90;;;;;;5086864;28;20195;-62
2021/11/21 05:53:54;;;;;;;22.50;13.90;;;6.80;99.90;;;;;;5092560;28;20032;-62
2021/11/21 05:56:20;;;;;;;25.90;13.40;;;6.90;99.90;;;;;;5093370;28;20028;-62
2021/11/21 05:58:47;;;;;;;24.45;13.05;;;6.90;99.90;;;;;;5087050;28;20024;-62
2021/11/21 06:01:14;;;;;;;24.52;14.55;;;6.70;99.90;;;;;;5073772;28;20029;-62
2021/11/21 06:03:40;;;;;;;23.80;13.52;;;6.80;99.90;;;;;;5079272;28;20020;-62
2021/11/21 06:06:06;;;;;;;25.92;15.35;;;6.70;99.90;;;;;;5092214;28;20043;-62
2021/11/21 06:08:31;;;;;;;24.42;13.65;;;6.80;99.90;;;;;;5092745;28;20024;-62
2021/11/21 06:10:57;;;;;;;27.15;14.95;;;6.60;99.90;;;;;;5056566;28;20032;-62
2021/11/21 06:13:25;;;;;;;24.80;12.30;;;6.70;99.90;;;;;;5073174;28;20161;-61
2021/11/21 06:15:51;;;;;;;26.70;14.77;;;6.80;99.90;;;;;;5090543;28;20097;-62
2021/11/21 06:18:17;;;;;;;28.48;15.88;;;6.80;99.90;;;;;;5088573;28;20042;-62
2021/11/21 06:20:43;;;;;;;27.92;13.88;;;6.80;99.90;;;;;;5080128;28;20137;-62
2021/11/21 06:23:10;;;;;;;24.80;13.90;;;6.70;99.90;;;;;;5073164;28;20107;-62
2021/11/21 06:25:37;;;;;;;30.73;15.68;;;6.70;99.90;;;;;;5073522;28;20575;-61
2021/11/21 06:28:03;;;;;;;26.75;14.85;;;6.70;99.90;;;;;;5065325;28;20028;-62
2021/11/21 06:30:28;;;;;;;30.75;14.43;;;6.70;99.90;;;;;;5075420;28;20052;-62
2021/11/21 06:32:54;;;;;;;26.92;13.75;;;6.70;99.90;;;;;;5089110;28;20032;-62
2021/11/21 06:35:19;;;;;;;27.08;14.45;;;6.80;99.90;;;;;;5071696;28;20028;-62
2021/11/21 06:37:45;;;;;;;28.00;14.32;;;6.70;99.90;;;;;;5073310;28;20025;-62
2021/11/21 06:40:12;;;;;;;31.17;14.82;;;6.60;99.90;;;;;;5086633;28;20515;-62
2021/11/21 06:42:38;;;;;;;30.83;14.80;;;6.70;99.90;;;;;;5073207;28;20036;-62
2021/11/21 06:45:04;;;;;;;34.30;16.83;;;6.80;99.90;;;;;;5063271;28;20029;-62
2021/11/21 06:47:30;;;;;;;28.25;14.43;;;6.80;99.90;;;;;;5071525;28;20465;-62
2021/11/21 06:50:00;;;;;;;27.10;15.35;;;6.80;99.90;;;;;;5072410;28;20045;-61
2021/11/21 06:52:26;;;;;;;26.83;14.82;;;6.80;99.90;;;;;;5088404;28;20093;-62
2021/11/21 06:54:52;;;;;;;28.33;14.13;;;6.80;99.90;;;;;;5078665;28;20466;-62
2021/11/21 06:57:19;;;;;;;26.45;14.65;;;6.90;99.90;;;;;;5092006;28;20035;-61
2021/11/21 06:59:44;;;;;;;27.23;15.88;;;6.80;99.90;;;;;;5071234;28;20118;-64
2021/11/21 07:02:10;;;;;;;24.17;13.63;;;6.70;99.90;;;;;;5080236;28;20048;-62
2021/11/21 07:04:36;;;;;;;24.27;13.93;;;6.90;99.90;;;;;;5066072;28;20407;-63
2021/11/21 07:07:09;;;;;;;27.85;15.45;;;6.90;99.90;;;;;;5072084;28;20029;-63
2021/11/21 07:09:35;;;;;;;26.45;14.52;;;6.80;99.90;;;;;;5066813;28;20032;-63
2021/11/21 07:12:01;;;;;;;28.65;15.57;;;6.80;99.90;;;;;;5069045;28;20384;-62
2021/11/21 07:14:27;;;;;;;25.38;13.35;;;6.80;99.90;;;;;;5037756;28;20077;-63
2021/11/21 07:16:52;;;;;;;26.75;14.60;;;6.90;99.90;;;;;;5078655;28;20518;-62
2021/11/21 07:19:18;;;;;;;27.67;14.88;;;6.90;99.90;;;;;;5072379;28;20434;-63
2021/11/21 07:21:44;;;;;;;21.65;13.15;;;6.90;99.90;;;;;;5079589;28;20020;-63
2021/11/21 07:24:11;;;;;;;24.25;13.00;;;6.90;99.90;;;;;;5091272;28;20458;-65
2021/11/21 07:26:37;;;;;;;25.70;12.68;;;6.80;99.90;;;;;;5091518;28;20050;-62
2021/11/21 07:29:04;;;;;;;22.65;14.50;;;6.80;99.90;;;;;;5066091;28;20036;-64
2021/11/21 07:31:30;;;;;;;24.95;14.57;;;6.80;99.90;;;;;;5073422;28;20024;-62
2021/11/21 07:33:56;;;;;;;22.33;11.75;;;6.80;99.90;;;;;;5084353;28;20024;-64
2021/11/21 07:36:22;;;;;;;27.98;13.38;;;6.80;99.90;;;;;;5091743;28;20024;-64
2021/11/21 07:38:48;;;;;;;21.15;11.18;;;6.80;99.90;;;;;;5078404;28;20115;-63
2021/11/21 07:41:14;;;;;;;23.40;12.90;;;6.90;99.90;;;;;;5084748;28;20028;-63
2021/11/21 07:43:40;;;;;;;22.63;12.88;;;7.00;99.90;;;;;;5091667;28;20028;-63
2021/11/21 07:46:07;;;;;;;19.92;11.70;;;7.00;99.90;;;;;;5084806;28;20062;-62
2021/11/21 07:48:33;;;;;;;19.52;11.52;;;7.00;99.90;;;;;;5060372;28;20036;-62
2021/11/21 07:51:00;;;;;;;17.83;10.93;;;7.00;99.90;;;;;;5056045;28;20060;-62
2021/11/21 07:53:27;;;;;;;23.25;11.68;;;7.00;99.90;;;;;;5071842;28;20082;-62
2021/11/21 07:55:53;;;;;;;20.27;12.10;;;6.80;99.90;;;;;;5089949;28;20465;-63
2021/11/21 07:58:19;;;;;;;19.83;10.80;;;6.90;99.90;;;;;;5090724;28;20060;-63
2021/11/21 08:00:45;;;;;;;15.73;10.50;;;6.90;99.90;;;;;;5090369;28;20382;-63
2021/11/21 08:03:11;;;;;;;19.75;11.70;;;6.80;99.90;;;;;;5072229;28;20053;-63
2021/11/21 08:05:37;;;;;;;18.50;11.73;;;6.90;99.90;;;;;;5081307;28;20105;-62
2021/11/21 08:08:03;;;;;;;22.10;12.27;;;6.80;99.90;;;;;;5078000;28;20028;-62
2021/11/21 08:10:29;;;;;;;21.48;12.10;;;7.80;99.90;;;;;;5084765;28;20494;-63
2021/11/21 08:12:55;;;;;;;19.77;12.13;;;8.70;99.90;;;;;;5071480;28;20063;-63
2021/11/21 08:15:20;;;;;;;18.88;10.02;;;7.80;99.90;;;;;;5071080;28;20032;-63
2021/11/21 08:17:46;;;;;;;18.63;11.02;;;7.40;99.90;;;;;;5075619;28;20040;-62
2021/11/21 08:20:12;;;;;;;18.15;10.40;;;7.20;99.90;;;;;;5071880;28;20079;-63
2021/11/21 08:22:38;;;;;;;17.88;10.20;;;6.90;99.90;;;;;;5067055;28;20031;-63
2021/11/21 08:25:05;;;;;;;20.45;10.52;;;6.90;99.90;;;;;;5073625;28;20062;-64
2021/11/21 08:27:30;;;;;;;17.10;10.43;;;6.90;99.90;;;;;;5079594;28;20041;-63
2021/11/21 08:29:56;;;;;;;19.25;9.75;;;6.80;99.90;;;;;;5077646;28;20046;-63
2021/11/21 08:32:22;;;;;;;18.63;10.15;;;6.80;99.90;;;;;;5061529;28;20111;-63
2021/11/21 08:34:47;;;;;;;18.48;10.10;;;6.80;99.90;;;;;;5087026;28;20036;-63
2021/11/21 08:37:14;;;;;;;17.73;9.85;;;6.90;99.90;;;;;;5070157;28;20533;-64
2021/11/21 08:39:40;;;;;;;18.60;10.80;;;6.90;99.90;;;;;;5080016;28;20032;-63
2021/11/21 08:42:06;;;;;;;15.75;9.18;;;6.90;99.90;;;;;;5083003;28;20039;-63
2021/11/21 08:44:32;;;;;;;16.42;9.60;;;6.90;99.90;;;;;;5081136;28;20020;-63
2021/11/21 08:46:58;;;;;;;15.02;9.50;;;7.00;99.90;;;;;;5074089;28;20032;-71
2021/11/21 08:49:24;;;;;;;19.27;11.10;;;7.00;99.90;;;;;;5059021;28;20111;-65
2021/11/21 08:51:50;;;;;;;18.90;10.35;;;7.10;99.90;;;;;;5080610;28;20032;-64
2021/11/21 08:54:16;;;;;;;17.80;10.68;;;7.10;99.90;;;;;;5069517;28;20039;-63
2021/11/21 08:56:47;;;;;;;20.10;10.10;;;7.00;99.90;;;;;;5068185;28;20478;-71
2021/11/21 08:59:14;;;;;;;15.43;9.03;;;7.10;99.90;;;;;;5075029;28;20036;-70
2021/11/21 09:01:42;;;;;;;16.92;10.20;;;6.90;99.90;;;;;;5068568;28;20028;-64
2021/11/21 09:04:07;;;;;;;14.70;8.43;;;7.00;99.90;;;;;;5085563;28;20458;-63
2021/11/21 09:06:33;;;;;;;14.57;8.57;;;7.10;99.90;;;;;;5083972;28;20031;-63
2021/11/21 09:08:59;;;;;;;17.17;10.13;;;7.10;99.90;;;;;;5080796;28;20040;-66
2021/11/21 09:11:25;;;;;;;21.92;10.85;;;7.20;99.90;;;;;;5072386;28;20327;-62
2021/11/21 09:13:51;;;;;;;14.70;8.85;;;7.20;99.90;;;;;;5075585;28;20035;-63
2021/11/21 09:16:17;;;;;;;14.80;9.68;;;7.30;99.90;;;;;;5056697;28;20075;-63
2021/11/21 09:18:43;;;;;;;15.82;9.98;;;7.20;99.90;;;;;;5065606;28;20064;-61
2021/11/21 09:21:09;;;;;;;18.92;10.50;;;7.30;99.90;;;;;;5085412;28;20020;-62
2021/11/21 09:23:34;;;;;;;15.60;8.93;;;7.30;99.90;;;;;;5087637;28;20103;-62
2021/11/21 09:26:00;;;;;;;17.02;9.93;;;7.20;99.90;;;;;;5082130;28;20060;-63
2021/11/21 09:28:26;;;;;;;19.50;8.90;;;7.30;99.90;;;;;;5070630;28;20127;-62
2021/11/21 09:30:54;;;;;;;14.07;9.32;;;7.30;99.90;;;;;;5067675;28;20191;-61
2021/11/21 09:33:20;;;;;;;17.33;9.95;;;7.20;99.90;;;;;;5069918;28;20123;-62
2021/11/21 09:35:47;;;;;;;16.65;10.10;;;7.20;99.90;;;;;;5071155;28;20078;-61
2021/11/21 09:38:13;;;;;;;13.40;8.73;;;7.30;99.90;;;;;;5068591;28;20040;-60
2021/11/21 09:40:39;;;;;;;16.17;9.50;;;7.30;99.90;;;;;;5058560;28;20075;-61
2021/11/21 09:43:05;;;;;;;14.63;9.13;;;7.40;99.90;;;;;;5084924;28;20051;-62
2021/11/21 09:45:31;;;;;;;14.18;8.88;;;7.50;99.90;;;;;;5064021;28;20037;-62
2021/11/21 09:47:59;;;;;;;17.73;8.93;;;7.50;99.90;;;;;;5084849;28;20028;-62
2021/11/21 09:50:28;;;;;;;15.23;9.30;;;7.60;99.90;;;;;;5077068;28;20139;-62
2021/11/21 09:52:54;;;;;;;17.60;10.30;;;7.50;99.90;;;;;;5092298;28;20121;-64
2021/11/21 09:55:20;;;;;;;16.33;8.98;;;7.50;99.90;;;;;;5076408;28;20031;-61
2021/11/21 09:57:47;;;;;;;16.10;9.02;;;7.60;99.90;;;;;;5076046;28;20385;-63
2021/11/21 10:00:17;;;;;;;14.48;9.65;;;7.60;99.90;;;;;;5075809;28;20024;-62
2021/11/21 10:02:48;;;;;;;15.47;10.93;;;7.60;99.90;;;;;;5074630;28;20040;-63
2021/11/21 10:05:24;;;;;;;17.70;9.77;;;7.60;99.90;;;;;;5073336;28;20029;-62
2021/11/21 10:08:01;;;;;;;13.73;8.93;;;7.60;99.90;;;;;;5065908;28;20378;-62
2021/11/21 10:10:27;;;;;;;16.10;10.20;;;7.60;99.90;;;;;;5081165;28;20039;-63
2021/11/21 10:12:52;;;;;;;19.13;9.95;;;7.40;99.90;;;;;;5086548;28;20032;-62
2021/11/21 10:15:19;;;;;;;17.00;8.98;;;7.40;99.90;;;;;;5091108;28;20315;-64
2021/11/21 10:17:54;;;;;;;16.13;9.07;;;7.50;99.90;;;;;;5069639;28;20085;-62
2021/11/21 10:20:29;;;;;;;14.77;9.10;;;7.40;99.90;;;;;;5082589;28;20063;-63
2021/11/21 10:23:05;;;;;;;18.88;10.00;;;7.40;99.90;;;;;;5082526;28;20056;-62
2021/11/21 10:25:33;;;;;;;15.95;9.45;;;7.30;99.90;;;;;;5089603;28;20028;-62
2021/11/21 10:28:10;;;;;;;13.05;7.88;;;7.20;99.90;;;;;;5082435;28;20375;-62
2021/11/21 10:30:57;;;;;;;19.60;9.75;;;7.30;99.90;;;;;;5074243;28;20081;-62
2021/11/21 10:33:27;;;;;;;11.48;6.95;;;7.30;99.90;;;;;;5078399;28;20077;-61
2021/11/21 10:35:58;;;;;;;14.85;8.30;;;7.50;99.90;;;;;;5065200;28;20032;-62
2021/11/21 10:38:39;;;;;;;12.20;7.75;;;7.50;99.90;;;;;;5067104;28;20032;-62
2021/11/21 10:41:11;;;;;;;15.95;8.75;;;7.60;99.90;;;;;;5061918;28;20059;-63
2021/11/21 10:43:47;;;;;;;14.77;9.10;;;7.70;99.90;;;;;;5085857;28;20020;-63
2021/11/21 10:46:24;;;;;;;15.60;7.50;;;7.90;99.90;;;;;;5071795;28;20043;-62
2021/11/21 10:48:50;;;;;;;23.13;16.52;;;7.80;99.90;;;;;;5064978;28;20052;-61
2021/11/21 10:51:24;;;;;;;12.85;7.35;;;7.80;99.90;;;;;;5074609;28;20462;-62
2021/11/21 10:53:50;;;;;;;15.90;7.78;;;7.70;99.90;;;;;;5087272;28;20039;-62
2021/11/21 10:56:17;;;;;;;23.02;15.88;;;7.70;99.90;;;;;;5085540;28;20040;-62
2021/11/21 10:58:50;;;;;;;23.33;16.55;;;7.80;99.90;;;;;;5068662;28;20048;-63
2021/11/21 11:01:24;;;;;;;14.30;9.15;;;8.20;99.90;;;;;;5089129;28;20434;-62
2021/11/21 11:04:12;;;;;;;19.10;8.52;;;8.50;99.90;;;;;;5075407;28;20028;-61
2021/11/21 11:06:39;;;;;;;16.50;9.65;;;8.10;99.90;;;;;;5081052;28;20467;-63
2021/11/21 11:09:21;;;;;;;12.57;7.78;;;7.90;99.90;;;;;;5078000;28;20032;-62
2021/11/21 11:11:48;;;;;;;;;;;7.80;99.90;;;;;;5074064;28;20051;-62
2021/11/21 11:14:18;;;;;;;13.98;8.20;;;7.70;99.90;;;;;;5087083;28;20019;-62
2021/11/21 11:16:54;;;;;;;15.88;7.53;;;7.70;99.90;;;;;;5067004;28;20032;-62
2021/11/21 11:19:20;;;;;;;13.15;7.75;;;7.70;99.90;;;;;;5062555;28;20125;-63
2021/11/21 11:21:49;;;;;;;20.02;7.65;;;7.50;99.90;;;;;;5078661;28;20458;-61
2021/11/21 11:24:20;;;;;;;13.43;7.50;;;7.40;99.90;;;;;;5079316;28;20035;-62
2021/11/21 11:26:47;;;;;;;18.20;8.27;;;7.40;99.90;;;;;;5078784;28;20082;-67
2021/11/21 11:29:17;;;;;;;14.48;8.25;;;7.50;99.90;;;;;;5073035;28;20291;-62
2021/11/21 11:31:43;;;;;;;17.83;8.25;;;7.50;99.90;;;;;;5065022;28;20378;-63
2021/11/21 11:34:33;;;;;;;17.48;8.02;;;7.40;99.90;;;;;;5082959;28;20108;-62
2021/11/21 11:36:59;;;;;;;14.43;8.25;;;7.50;99.90;;;;;;5084685;28;20016;-63
2021/11/21 11:39:37;;;;;;;14.68;7.47;;;7.60;99.90;;;;;;5074301;28;20036;-62
2021/11/21 11:42:32;;;;;;;14.10;8.52;;;7.50;99.90;;;;;;5064906;28;20808;-62
2021/11/21 11:44:58;;;;;;;12.77;8.00;;;7.50;99.90;;;;;;5060697;28;20028;-62
2021/11/21 11:47:26;;;;;;;15.98;8.15;;;7.50;99.90;;;;;;5068634;28;20161;-64
2021/11/21 11:49:51;;;;;;;15.20;8.48;;;7.40;99.90;;;;;;5056449;28;20127;-62
2021/11/21 11:52:55;;;;;;;16.73;7.28;;;7.40;99.90;;;;;;5064067;28;20084;-64
2021/11/21 11:55:24;;;;;;;13.63;7.65;;;7.50;99.90;;;;;;5065707;28;20107;-63
2021/11/21 11:57:51;;;;;;;12.95;7.88;;;7.50;99.90;;;;;;5064274;28;20033;-63
2021/11/21 12:00:29;;;;;;;11.15;7.55;;;7.50;99.90;;;;;;5074385;28;20382;-60
2021/11/21 12:02:56;;;;;;;17.77;7.95;;;7.60;99.90;;;;;;5075177;28;20036;-61
2021/11/21 12:05:34;;;;;;;15.52;9.50;;;7.80;99.90;;;;;;5076088;28;20525;-62
2021/11/21 12:08:17;;;;;;;12.68;7.72;;;9.10;99.90;;;;;;5082273;28;20028;-61
2021/11/21 12:10:52;;;;;;;48.60;18.67;;;10.10;99.90;;;;;;5076778;28;20499;-66
2021/11/21 12:13:33;;;;;;;11.88;6.75;;;10.90;99.90;;;;;;5071507;28;20028;-63
2021/11/21 12:16:15;;;;;;;13.63;7.43;;;10.80;99.90;;;;;;5082637;28;20120;-62
2021/11/21 12:18:58;;;;;;;10.45;7.03;;;9.80;99.90;;;;;;5066732;28;20467;-63
2021/11/21 12:21:45;;;;;;;12.27;6.80;;;9.10;99.90;;;;;;5078756;28;20020;-64
2021/11/21 12:24:19;;;;;;;8.20;5.10;;;8.60;99.90;;;;;;5062746;28;20110;-62
2021/11/21 12:26:46;;;;;;;7.00;4.88;;;8.50;99.90;;;;;;5074440;28;20040;-62
2021/11/21 12:29:25;;;;;;;8.30;5.95;;;8.30;99.90;;;;;;5067853;28;20123;-63
2021/11/21 12:31:53;;;;;;;9.55;5.88;;;8.20;99.90;;;;;;5079833;28;20039;-63
2021/11/21 12:34:41;;;;;;;10.32;6.50;;;8.10;99.90;;;;;;5067600;28;20035;-62
2021/11/21 12:37:16;;;;;;;8.82;5.85;;;8.10;99.90;;;;;;5063451;28;20044;-62
2021/11/21 12:40:06;;;;;;;16.00;6.15;;;8.00;99.90;;;;;;5080906;28;20070;-61
2021/11/21 12:42:32;;;;;;;10.60;5.78;;;8.00;99.90;;;;;;5038773;28;20490;-62
2021/11/21 12:45:12;;;;;;;9.88;6.25;;;8.00;99.90;;;;;;5081852;28;20033;-62
2021/11/21 12:47:40;;;;;;;9.07;5.85;;;8.10;99.90;;;;;;5070682;28;20162;-62